createdAt,value
2022-12-28T00:00:48.748Z,21.42
2022-12-28T00:01:50.600Z,19.83
2022-12-28T00:02:53.442Z,21.40
2022-12-28T00:03:56.138Z,20.08
2022-12-28T00:05:00.121Z,20.23
2022-12-28T00:06:02.195Z,23.17
2022-12-28T00:07:05.050Z,15.82
2022-12-28T00:08:07.251Z,17.02
2022-12-28T00:09:12.022Z,17.90
2022-12-28T00:10:13.963Z,16.80
2022-12-28T00:11:26.512Z,15.52
2022-12-28T00:12:33.084Z,20.63
2022-12-28T00:13:35.888Z,18.50
2022-12-28T00:14:38.711Z,18.00
2022-12-28T00:15:40.510Z,17.13
2022-12-28T00:16:45.314Z,20.35
2022-12-28T00:17:47.088Z,20.08
2022-12-28T00:18:49.852Z,20.65
2022-12-28T00:19:52.709Z,15.82
2022-12-28T00:20:58.135Z,18.73
2022-12-28T00:22:00.987Z,17.77
2022-12-28T00:23:04.993Z,18.13
2022-12-28T00:24:08.607Z,19.38
2022-12-28T00:25:10.696Z,15.57
2022-12-28T00:26:14.723Z,18.23
2022-12-28T00:27:17.556Z,15.85
2022-12-28T00:28:19.848Z,15.57
2022-12-28T00:29:23.073Z,17.38
2022-12-28T00:30:25.143Z,17.95
2022-12-28T00:31:28.026Z,17.17
2022-12-28T00:32:32.219Z,19.35
2022-12-28T00:33:35.064Z,19.98
2022-12-28T00:34:36.899Z,13.77
2022-12-28T00:35:43.301Z,17.95
2022-12-28T00:37:08.484Z,19.40
2022-12-28T00:38:07.802Z,14.93
2022-12-28T00:39:10.622Z,13.77
2022-12-28T00:40:16.442Z,17.85
2022-12-28T00:41:23.221Z,17.42
2022-12-28T00:42:26.074Z,14.32
2022-12-28T00:43:28.217Z,14.75
2022-12-28T00:44:31.146Z,17.98
2022-12-28T00:45:35.900Z,17.02
2022-12-28T00:46:38.735Z,15.48
2022-12-28T00:47:41.940Z,13.73
2022-12-28T00:48:44.994Z,20.55
2022-12-28T00:49:46.895Z,14.25
2022-12-28T00:50:49.756Z,17.17
2022-12-28T00:51:51.670Z,14.32
2022-12-28T00:52:54.417Z,15.75
2022-12-28T00:53:56.306Z,13.93
2022-12-28T00:54:59.407Z,13.20
2022-12-28T00:56:05.986Z,14.20
2022-12-28T00:57:08.813Z,20.95
2022-12-28T00:58:10.811Z,14.82
2022-12-28T00:59:13.657Z,16.98
2022-12-28T01:00:16.470Z,13.52
2022-12-28T01:01:21.964Z,16.17
2022-12-28T01:02:25.535Z,13.40
2022-12-28T01:03:29.705Z,14.57
2022-12-28T01:04:32.952Z,14.20
2022-12-28T01:05:35.716Z,17.77
2022-12-28T01:06:37.454Z,15.48
2022-12-28T01:07:40.568Z,13.85
2022-12-28T01:08:42.735Z,15.85
2022-12-28T01:09:47.095Z,19.73
2022-12-28T01:10:49.240Z,15.45
2022-12-28T01:11:52.062Z,13.98
2022-12-28T01:12:54.342Z,16.05
2022-12-28T01:13:58.443Z,17.20
2022-12-28T01:15:00.241Z,14.15
2022-12-28T01:16:11.473Z,14.98
2022-12-28T01:17:14.798Z,15.20
2022-12-28T01:18:18.553Z,20.10
2022-12-28T01:19:23.930Z,15.27
2022-12-28T01:20:25.869Z,17.27
2022-12-28T01:21:31.054Z,14.07
2022-12-28T01:22:32.960Z,15.45
2022-12-28T01:23:35.806Z,18.20
2022-12-28T01:24:37.629Z,19.60
2022-12-28T01:25:40.645Z,15.77
2022-12-28T01:26:42.552Z,18.88
2022-12-28T01:27:45.331Z,15.25
2022-12-28T01:28:47.373Z,18.45
2022-12-28T01:29:50.591Z,15.07
2022-12-28T01:30:52.411Z,14.80
2022-12-28T01:31:55.985Z,17.17
2022-12-28T01:32:59.089Z,15.20
2022-12-28T01:34:02.173Z,17.63
2022-12-28T01:35:06.487Z,17.52
2022-12-28T01:36:12.223Z,15.32
2022-12-28T01:37:14.027Z,17.88
2022-12-28T01:38:16.816Z,17.05
2022-12-28T01:39:18.827Z,21.35
2022-12-28T01:40:21.623Z,16.35
2022-12-28T01:41:24.010Z,18.00
2022-12-28T01:42:27.141Z,18.92
2022-12-28T01:43:38.001Z,17.75
2022-12-28T01:44:46.547Z,18.85
2022-12-28T01:45:51.583Z,17.30
2022-12-28T01:46:56.422Z,19.02
2022-12-28T01:47:58.291Z,14.85
2022-12-28T01:49:04.487Z,15.07
2022-12-28T01:50:11.910Z,16.38
2022-12-28T01:51:15.550Z,14.70
2022-12-28T01:52:21.328Z,17.67
2022-12-28T01:53:25.280Z,15.48
2022-12-28T01:54:33.489Z,15.15
2022-12-28T01:55:37.355Z,17.67
2022-12-28T01:56:39.780Z,18.00
2022-12-28T01:57:45.413Z,16.20
2022-12-28T01:58:48.264Z,17.35
2022-12-28T01:59:54.403Z,18.42
2022-12-28T02:00:56.342Z,21.65
2022-12-28T02:01:59.617Z,17.92
2022-12-28T02:03:04.734Z,16.50
2022-12-28T02:04:07.588Z,21.58
2022-12-28T02:05:11.555Z,21.25
2022-12-28T02:06:15.044Z,18.15
2022-12-28T02:07:20.028Z,16.20
2022-12-28T02:08:25.369Z,19.85
2022-12-28T02:09:30.723Z,18.48
2022-12-28T02:10:43.778Z,17.13
2022-12-28T02:11:48.618Z,15.38
2022-12-28T02:12:52.303Z,13.38
2022-12-28T02:13:56.068Z,17.77
2022-12-28T02:14:59.279Z,14.35
2022-12-28T02:16:02.116Z,20.23
2022-12-28T02:17:04.086Z,15.55
2022-12-28T02:18:07.993Z,14.88
2022-12-28T02:19:14.344Z,19.23
2022-12-28T02:20:20.082Z,16.52
2022-12-28T02:21:26.254Z,20.75
2022-12-28T02:23:07.489Z,15.98
2022-12-28T02:24:47.423Z,19.55
2022-12-28T02:26:27.637Z,19.42
2022-12-28T02:27:37.071Z,18.08
2022-12-28T02:29:26.772Z,18.02
2022-12-28T02:30:31.935Z,15.93
2022-12-28T02:31:37.249Z,13.48
2022-12-28T02:32:53.380Z,21.30
2022-12-28T02:33:59.456Z,19.10
2022-12-28T02:35:08.302Z,16.92
2022-12-28T02:36:18.335Z,16.55
2022-12-28T02:37:24.676Z,23.08
2022-12-28T02:38:28.879Z,21.85
2022-12-28T02:39:36.561Z,18.27
2022-12-28T02:40:43.927Z,16.65
2022-12-28T02:41:47.086Z,20.02
2022-12-28T02:42:52.051Z,21.05
2022-12-28T02:43:54.706Z,21.85
2022-12-28T02:45:15.490Z,19.83
2022-12-28T02:46:39.110Z,18.90
2022-12-28T02:48:00.810Z,18.90
2022-12-28T02:49:36.178Z,23.75
2022-12-28T02:50:47.013Z,19.02
2022-12-28T02:51:58.750Z,14.45
2022-12-28T02:53:18.501Z,18.15
2022-12-28T02:55:04.279Z,21.95
2022-12-28T02:56:16.091Z,20.80
2022-12-28T02:57:32.075Z,23.67
2022-12-28T02:59:12.617Z,17.92
2022-12-28T03:00:16.843Z,21.27
2022-12-28T03:01:33.544Z,18.50
2022-12-28T03:02:46.984Z,22.70
2022-12-28T03:04:04.190Z,19.67
2022-12-28T03:05:11.438Z,24.15
2022-12-28T03:06:34.398Z,19.40
2022-12-28T03:08:00.852Z,23.58
2022-12-28T03:09:07.391Z,20.40
2022-12-28T03:10:13.005Z,20.05
2022-12-28T03:11:18.668Z,21.55
2022-12-28T03:12:26.610Z,20.33
2022-12-28T03:13:45.559Z,22.10
2022-12-28T03:14:58.689Z,21.75
2022-12-28T03:16:07.144Z,22.38
2022-12-28T03:17:29.596Z,22.20
2022-12-28T03:18:51.184Z,26.65
2022-12-28T03:20:16.087Z,22.15
2022-12-28T03:21:37.108Z,27.30
2022-12-28T03:23:02.038Z,23.90
2022-12-28T03:24:23.840Z,26.52
2022-12-28T03:25:46.589Z,23.02
2022-12-28T03:27:09.948Z,26.42
2022-12-28T03:28:42.834Z,25.13
2022-12-28T03:30:07.880Z,29.75
2022-12-28T03:31:15.060Z,26.88
2022-12-28T03:32:23.681Z,32.55
2022-12-28T03:33:26.512Z,23.77
2022-12-28T03:34:28.559Z,21.73
2022-12-28T03:35:38.858Z,25.50
2022-12-28T03:36:44.813Z,24.23
2022-12-28T03:37:52.550Z,24.08
2022-12-28T03:39:00.879Z,23.30
2022-12-28T03:40:11.363Z,26.67
2022-12-28T03:41:15.205Z,22.63
2022-12-28T03:42:44.597Z,23.88
2022-12-28T03:43:50.316Z,22.63
2022-12-28T03:44:55.574Z,20.95
2022-12-28T03:46:04.859Z,20.63
2022-12-28T03:47:09.124Z,17.27
2022-12-28T03:48:14.060Z,17.30
2022-12-28T03:49:17.359Z,19.08
2022-12-28T03:50:19.850Z,25.83
2022-12-28T03:51:24.960Z,21.42
2022-12-28T03:52:29.025Z,23.48
2022-12-28T03:53:39.607Z,22.50
2022-12-28T03:54:45.505Z,24.33
2022-12-28T03:55:51.042Z,19.67
2022-12-28T03:56:54.898Z,20.05
2022-12-28T03:58:03.006Z,17.42
2022-12-28T03:59:06.659Z,20.10
2022-12-28T04:00:15.222Z,18.65
2022-12-28T04:01:22.958Z,18.23
2022-12-28T04:02:25.292Z,17.10
2022-12-28T04:03:29.554Z,19.02
2022-12-28T04:04:31.434Z,20.20
2022-12-28T04:05:34.236Z,20.88
2022-12-28T04:06:36.129Z,22.05
2022-12-28T04:07:39.070Z,18.65
2022-12-28T04:08:41.851Z,16.65
2022-12-28T04:09:44.619Z,19.90
2022-12-28T04:10:47.135Z,18.20
2022-12-28T04:11:50.111Z,20.85
2022-12-28T04:13:00.222Z,19.15
2022-12-28T04:14:20.490Z,16.17
2022-12-28T04:15:23.855Z,16.48
2022-12-28T04:16:27.402Z,18.13
2022-12-28T04:17:29.778Z,17.27
2022-12-28T04:18:34.630Z,19.65
2022-12-28T04:19:36.546Z,18.05
2022-12-28T04:20:39.557Z,18.48
2022-12-28T04:21:41.483Z,14.13
2022-12-28T04:22:44.599Z,15.10
2022-12-28T04:23:46.903Z,14.55
2022-12-28T04:24:52.456Z,17.13
2022-12-28T04:25:58.732Z,20.63
2022-12-28T04:27:01.985Z,16.13
2022-12-28T04:28:04.894Z,13.32
2022-12-28T04:29:28.524Z,17.20
2022-12-28T04:30:34.498Z,14.88
2022-12-28T04:31:37.434Z,19.38
2022-12-28T04:32:42.969Z,15.73
2022-12-28T04:33:47.248Z,18.83
2022-12-28T04:34:49.309Z,17.30
2022-12-28T04:35:54.551Z,15.68
2022-12-28T04:36:57.784Z,18.77
2022-12-28T04:37:59.631Z,16.30
2022-12-28T04:39:02.440Z,18.67
2022-12-28T04:40:05.164Z,21.45
2022-12-28T04:41:08.917Z,19.58
2022-12-28T04:42:10.671Z,16.45
2022-12-28T04:43:13.747Z,20.50
2022-12-28T04:44:15.622Z,26.52
2022-12-28T04:45:22.125Z,23.33
2022-12-28T04:46:25.019Z,23.15
2022-12-28T04:47:27.878Z,20.35
2022-12-28T04:48:30.110Z,24.73
2022-12-28T04:49:34.223Z,20.27
2022-12-28T04:50:36.747Z,25.35
2022-12-28T04:51:39.866Z,21.63
2022-12-28T04:52:42.514Z,22.02
2022-12-28T04:53:45.377Z,23.92
2022-12-28T04:54:47.132Z,23.65
2022-12-28T04:55:50.162Z,23.90
2022-12-28T04:56:52.017Z,23.73
2022-12-28T04:57:54.834Z,23.58
2022-12-28T04:58:59.923Z,20.60
2022-12-28T05:00:02.749Z,25.02
2022-12-28T05:01:05.511Z,21.70
2022-12-28T05:02:08.702Z,21.08
2022-12-28T05:03:10.561Z,22.17
2022-12-28T05:04:14.070Z,23.27
2022-12-28T05:05:17.463Z,26.08
2022-12-28T05:06:22.232Z,19.63
2022-12-28T05:07:24.023Z,18.27
2022-12-28T05:08:27.347Z,19.63
2022-12-28T05:09:29.120Z,20.17
2022-12-28T05:10:31.994Z,27.48
2022-12-28T05:11:33.895Z,22.92
2022-12-28T05:12:37.018Z,23.30
2022-12-28T05:13:38.888Z,21.50
2022-12-28T05:14:42.207Z,18.90
2022-12-28T05:15:44.024Z,20.60
2022-12-28T05:16:46.739Z,18.77
2022-12-28T05:17:48.601Z,25.38
2022-12-28T05:18:51.523Z,22.17
2022-12-28T05:19:53.356Z,20.50
2022-12-28T05:21:01.665Z,20.17
2022-12-28T05:22:03.676Z,18.02
2022-12-28T05:23:07.168Z,23.73
2022-12-28T05:24:09.364Z,19.38
2022-12-28T05:25:12.108Z,20.48
2022-12-28T05:26:16.507Z,19.73
2022-12-28T05:27:19.367Z,21.70
2022-12-28T05:28:21.193Z,26.30
2022-12-28T05:29:24.438Z,21.55
2022-12-28T05:30:26.657Z,22.50
2022-12-28T05:31:29.504Z,21.70
2022-12-28T05:32:31.336Z,23.17
2022-12-28T05:33:35.822Z,24.75
2022-12-28T05:34:37.730Z,22.15
2022-12-28T05:35:40.680Z,17.33
2022-12-28T05:36:44.151Z,21.17
2022-12-28T05:37:46.921Z,25.27
2022-12-28T05:38:48.770Z,20.90
2022-12-28T05:39:52.273Z,19.88
2022-12-28T05:40:54.414Z,21.88
2022-12-28T05:42:00.081Z,22.23
2022-12-28T05:43:21.201Z,19.52
2022-12-28T05:44:23.037Z,20.08
2022-12-28T05:45:25.849Z,22.13
2022-12-28T05:46:29.513Z,16.95
2022-12-28T05:47:32.375Z,18.25
2022-12-28T05:48:35.376Z,19.58
2022-12-28T05:49:38.176Z,32.67
2022-12-28T05:50:40.860Z,26.40
2022-12-28T05:51:44.991Z,22.63
2022-12-28T05:52:46.913Z,19.70
2022-12-28T05:53:49.946Z,21.65
2022-12-28T05:54:51.736Z,23.70
2022-12-28T05:55:54.736Z,21.73
2022-12-28T05:56:57.628Z,16.80
2022-12-28T05:57:59.392Z,20.63
2022-12-28T05:59:03.847Z,20.83
2022-12-28T06:00:07.214Z,16.77
2022-12-28T06:01:16.671Z,19.05
2022-12-28T06:02:24.396Z,18.02
2022-12-28T06:03:27.612Z,20.75
2022-12-28T06:04:29.624Z,21.42
2022-12-28T06:05:32.409Z,20.35
2022-12-28T06:06:35.903Z,25.30
2022-12-28T06:07:40.366Z,27.40
2022-12-28T06:08:43.352Z,36.40
2022-12-28T06:09:46.201Z,32.70
2022-12-28T06:10:47.987Z,28.98
2022-12-28T06:11:50.910Z,29.60
2022-12-28T06:12:52.752Z,25.60
2022-12-28T06:13:55.862Z,26.17
2022-12-28T06:14:58.675Z,22.50
2022-12-28T06:16:05.596Z,20.90
2022-12-28T06:17:08.470Z,27.25
2022-12-28T06:18:10.707Z,21.08
2022-12-28T06:19:14.713Z,20.45
2022-12-28T06:20:16.915Z,24.73
2022-12-28T06:21:21.948Z,25.63
2022-12-28T06:22:23.739Z,26.27
2022-12-28T06:23:27.851Z,26.00
2022-12-28T06:24:29.891Z,23.75
2022-12-28T06:25:32.687Z,24.98
2022-12-28T06:26:35.966Z,26.55
2022-12-28T06:27:38.853Z,33.72
2022-12-28T06:28:41.728Z,29.00
2022-12-28T06:29:44.454Z,25.58
2022-12-28T06:30:52.222Z,25.85
2022-12-28T06:31:56.571Z,31.00
2022-12-28T06:32:58.427Z,30.30
2022-12-28T06:34:02.316Z,39.15
2022-12-28T06:35:04.704Z,37.08
2022-12-28T06:36:19.349Z,34.83
2022-12-28T06:37:22.935Z,27.92
2022-12-28T06:38:27.137Z,31.63
2022-12-28T06:39:30.211Z,32.83
2022-12-28T06:41:02.406Z,25.58
2022-12-28T06:41:55.119Z,29.80
2022-12-28T06:42:57.223Z,30.50
2022-12-28T06:44:00.417Z,32.35
2022-12-28T06:45:02.193Z,28.33
2022-12-28T06:46:05.732Z,34.35
2022-12-28T06:47:08.630Z,27.98
2022-12-28T06:48:10.587Z,33.90
2022-12-28T06:49:13.343Z,29.45
2022-12-28T06:50:15.747Z,29.38
2022-12-28T06:51:20.060Z,30.67
2022-12-28T06:52:22.158Z,28.05
2022-12-28T06:53:25.452Z,31.05
2022-12-28T06:54:29.595Z,26.67
2022-12-28T06:55:31.363Z,28.45
2022-12-28T06:56:35.628Z,29.05
2022-12-28T06:57:37.401Z,27.83
2022-12-28T06:58:40.718Z,29.52
2022-12-28T06:59:42.534Z,30.35
2022-12-28T07:00:45.564Z,31.05
2022-12-28T07:01:47.573Z,29.00
2022-12-28T07:02:50.604Z,30.33
2022-12-28T07:03:54.277Z,30.67
2022-12-28T07:04:57.016Z,30.52
2022-12-28T07:06:00.129Z,34.47
2022-12-28T07:07:03.006Z,32.63
2022-12-28T07:08:09.185Z,35.10
2022-12-28T07:09:17.387Z,27.48
2022-12-28T07:10:20.582Z,30.05
2022-12-28T07:11:23.437Z,31.75
2022-12-28T07:12:25.203Z,29.13
2022-12-28T07:13:28.395Z,30.73
2022-12-28T07:14:32.293Z,24.65
2022-12-28T07:15:35.460Z,30.05
2022-12-28T07:17:39.335Z,31.52
2022-12-28T07:18:42.852Z,32.63
2022-12-28T07:19:44.702Z,33.90
2022-12-28T07:20:47.500Z,39.45
2022-12-28T07:21:50.817Z,31.67
2022-12-28T07:22:53.349Z,36.05
2022-12-28T07:23:56.879Z,31.73
2022-12-28T07:24:58.716Z,36.50
2022-12-28T07:26:07.438Z,37.97
2022-12-28T07:27:10.215Z,38.40
2022-12-28T07:28:12.264Z,37.42
2022-12-28T07:29:15.035Z,40.15
2022-12-28T07:30:17.878Z,39.67
2022-12-28T07:31:22.406Z,36.90
2022-12-28T07:32:24.259Z,43.38
2022-12-28T07:33:27.054Z,40.80
2022-12-28T07:34:28.983Z,38.88
2022-12-28T07:35:31.690Z,40.55
2022-12-28T07:36:33.717Z,38.55
2022-12-28T07:37:36.616Z,33.60
2022-12-28T07:38:38.465Z,34.13
2022-12-28T07:39:41.228Z,40.40
2022-12-28T07:40:43.039Z,29.50
2022-12-28T07:41:47.230Z,23.80
2022-12-28T07:42:55.379Z,22.60
2022-12-28T07:43:58.492Z,27.10
2022-12-28T07:45:01.320Z,26.13
2022-12-28T07:46:03.366Z,27.70
2022-12-28T07:47:06.244Z,28.27
2022-12-28T07:48:08.158Z,24.85
2022-12-28T07:49:10.973Z,25.30
2022-12-28T07:50:13.156Z,25.50
2022-12-28T07:51:17.392Z,24.08
2022-12-28T07:52:19.362Z,24.58
2022-12-28T07:53:22.617Z,23.10
2022-12-28T07:54:25.692Z,27.17
2022-12-28T07:55:29.807Z,24.58
2022-12-28T07:57:38.311Z,24.85
2022-12-28T07:59:45.300Z,30.35
2022-12-28T08:00:48.237Z,31.90
2022-12-28T08:01:51.836Z,28.27
2022-12-28T08:02:56.179Z,25.77
2022-12-28T08:04:00.638Z,28.20
2022-12-28T08:05:02.635Z,29.00
2022-12-28T08:06:07.144Z,28.35
2022-12-28T08:07:10.142Z,20.00
2022-12-28T08:08:12.257Z,20.92
2022-12-28T08:09:16.168Z,21.73
2022-12-28T08:10:17.988Z,22.95
2022-12-28T08:11:22.724Z,22.73
2022-12-28T08:12:25.139Z,22.27
2022-12-28T08:13:31.769Z,24.17
2022-12-28T08:14:35.227Z,19.95
2022-12-28T08:15:37.566Z,21.88
2022-12-28T08:16:41.887Z,17.83
2022-12-28T08:17:43.902Z,21.33
2022-12-28T08:18:47.509Z,20.40
2022-12-28T08:19:50.186Z,22.52
2022-12-28T08:20:53.018Z,20.92
2022-12-28T08:21:56.026Z,18.83
2022-12-28T08:22:58.044Z,21.42
2022-12-28T08:24:01.700Z,23.48
2022-12-28T08:25:03.906Z,19.08
2022-12-28T08:26:08.686Z,17.75
2022-12-28T08:27:10.684Z,21.17
2022-12-28T08:28:13.948Z,17.27
2022-12-28T08:29:19.827Z,18.70
2022-12-28T08:30:22.820Z,19.75
2022-12-28T08:31:26.676Z,18.20
2022-12-28T08:32:29.533Z,24.95
2022-12-28T08:33:31.441Z,31.85
2022-12-28T08:34:34.351Z,19.17
2022-12-28T08:35:36.587Z,26.92
2022-12-28T08:36:39.572Z,23.25
2022-12-28T08:37:41.722Z,17.98
2022-12-28T08:38:46.035Z,18.17
2022-12-28T08:39:49.145Z,21.77
2022-12-28T08:40:57.554Z,22.08
2022-12-28T08:42:01.708Z,20.35
2022-12-28T08:43:03.877Z,17.67
2022-12-28T08:44:07.504Z,20.55
2022-12-28T08:45:12.563Z,18.77
2022-12-28T08:46:16.633Z,17.63
2022-12-28T08:47:20.118Z,23.63
2022-12-28T08:48:22.169Z,23.70
2022-12-28T08:49:25.028Z,28.67
2022-12-28T08:50:31.556Z,18.33
2022-12-28T08:51:37.643Z,26.50
2022-12-28T08:52:39.614Z,20.52
2022-12-28T08:53:42.801Z,18.88
2022-12-28T08:54:45.603Z,20.05
2022-12-28T08:55:47.625Z,16.23
2022-12-28T08:56:50.872Z,16.42
2022-12-28T08:57:52.727Z,16.70
2022-12-28T08:58:56.216Z,16.45
2022-12-28T08:59:58.082Z,21.23
2022-12-28T09:01:08.390Z,18.65
2022-12-28T09:02:13.800Z,19.95
2022-12-28T09:03:16.182Z,18.55
2022-12-28T09:04:22.782Z,19.55
2022-12-28T09:05:24.690Z,18.30
2022-12-28T09:06:31.410Z,17.23
2022-12-28T09:07:33.380Z,15.30
2022-12-28T09:08:36.377Z,13.45
2022-12-28T09:09:38.661Z,17.20
2022-12-28T09:10:41.795Z,13.20
2022-12-28T09:11:47.631Z,17.45
2022-12-28T09:12:50.935Z,13.77
2022-12-28T09:13:53.000Z,13.38
2022-12-28T09:14:55.912Z,17.92
2022-12-28T09:15:58.570Z,15.57
2022-12-28T09:17:03.163Z,12.63
2022-12-28T09:18:07.416Z,13.48
2022-12-28T09:19:14.474Z,15.10
2022-12-28T09:20:18.009Z,11.73
2022-12-28T09:21:21.118Z,12.75
2022-12-28T09:22:24.056Z,11.52
2022-12-28T09:23:28.859Z,10.75
2022-12-28T09:24:31.828Z,9.55
2022-12-28T09:25:34.981Z,14.02
2022-12-28T09:26:39.131Z,14.10
2022-12-28T09:27:41.246Z,12.30
2022-12-28T09:28:46.037Z,17.63
2022-12-28T09:29:49.604Z,12.18
2022-12-28T09:30:51.688Z,40.78
2022-12-28T09:31:54.595Z,13.38
2022-12-28T09:33:12.719Z,14.07
2022-12-28T09:35:38.466Z,19.45
2022-12-28T09:36:43.307Z,16.85
2022-12-28T09:37:46.198Z,18.17
2022-12-28T09:38:49.039Z,17.42
2022-12-28T09:39:54.566Z,18.25
2022-12-28T09:40:58.647Z,19.00
2022-12-28T09:42:04.299Z,12.30
2022-12-28T09:43:06.281Z,12.98
2022-12-28T09:44:21.095Z,18.42
2022-12-28T09:45:26.870Z,26.63
2022-12-28T09:46:29.947Z,12.70
2022-12-28T09:47:38.492Z,12.85
2022-12-28T09:48:42.327Z,14.40
2022-12-28T09:49:48.637Z,14.02
2022-12-28T09:50:52.037Z,15.18
2022-12-28T09:51:57.586Z,18.60
2022-12-28T09:53:20.891Z,14.50
2022-12-28T09:54:24.245Z,17.33
2022-12-28T09:55:27.112Z,11.82
2022-12-28T09:56:34.342Z,17.08
2022-12-28T09:57:39.277Z,15.07
2022-12-28T09:58:45.152Z,18.20
2022-12-28T09:59:51.016Z,24.58
2022-12-28T10:00:54.816Z,16.73
2022-12-28T10:02:00.695Z,16.40
2022-12-28T10:03:05.606Z,16.90
2022-12-28T10:04:12.683Z,19.20
2022-12-28T10:05:15.955Z,24.40
2022-12-28T10:06:23.415Z,30.20
2022-12-28T10:07:25.435Z,24.02
2022-12-28T10:08:29.001Z,17.05
2022-12-28T10:09:34.864Z,32.42
2022-12-28T10:10:36.770Z,18.42
2022-12-28T10:11:42.813Z,13.85
2022-12-28T10:12:45.762Z,18.30
2022-12-28T10:13:55.140Z,22.50
2022-12-28T10:15:00.042Z,13.98
2022-12-28T10:16:04.752Z,18.25
2022-12-28T10:17:09.451Z,23.02
2022-12-28T10:18:12.875Z,15.50
2022-12-28T10:19:20.009Z,17.33
2022-12-28T10:20:22.609Z,15.95
2022-12-28T10:21:32.718Z,16.88
2022-12-28T10:22:38.578Z,14.57
2022-12-28T10:23:56.694Z,14.77
2022-12-28T10:25:04.105Z,17.08
2022-12-28T10:26:06.583Z,15.07
2022-12-28T10:27:14.670Z,17.33
2022-12-28T10:28:17.088Z,15.52
2022-12-28T10:29:21.747Z,14.57
2022-12-28T10:30:27.309Z,18.60
2022-12-28T10:31:59.382Z,20.42
2022-12-28T10:33:03.814Z,20.15
2022-12-28T10:34:14.427Z,24.45
2022-12-28T10:35:27.050Z,18.90
2022-12-28T10:36:35.123Z,21.02
2022-12-28T10:37:44.488Z,21.58
2022-12-28T10:38:52.095Z,25.40
2022-12-28T10:39:56.809Z,19.60
2022-12-28T10:41:01.177Z,21.75
2022-12-28T10:42:05.123Z,17.50
2022-12-28T10:43:19.343Z,20.60
2022-12-28T10:44:39.496Z,17.17
2022-12-28T10:45:48.020Z,18.63
2022-12-28T10:46:52.215Z,14.50
2022-12-28T10:47:57.088Z,19.63
2022-12-28T10:49:01.200Z,17.83
2022-12-28T10:51:31.157Z,18.88
2022-12-28T10:52:33.015Z,12.70
2022-12-28T10:53:43.448Z,14.05
2022-12-28T10:54:50.266Z,21.45
2022-12-28T10:56:21.298Z,12.98
2022-12-28T10:57:30.723Z,17.65
2022-12-28T10:58:34.451Z,14.88
2022-12-28T10:59:39.646Z,13.65
2022-12-28T11:00:44.563Z,13.13
2022-12-28T11:01:51.906Z,18.20
2022-12-28T11:02:55.184Z,16.35
2022-12-28T11:04:05.633Z,16.83
2022-12-28T11:05:20.538Z,16.08
2022-12-28T11:06:27.365Z,16.38
2022-12-28T11:07:35.093Z,14.98
2022-12-28T11:08:37.342Z,13.85
2022-12-28T11:09:40.937Z,24.45
2022-12-28T11:10:42.956Z,13.43
2022-12-28T11:11:47.352Z,15.07
2022-12-28T11:12:50.210Z,24.13
2022-12-28T11:13:57.118Z,16.50
2022-12-28T11:14:59.295Z,22.02
2022-12-28T11:16:02.274Z,14.60
2022-12-28T11:17:16.219Z,13.15
2022-12-28T11:18:19.095Z,16.15
2022-12-28T11:19:22.989Z,14.77
2022-12-28T11:20:29.920Z,14.85
2022-12-28T11:21:33.920Z,19.40
2022-12-28T11:22:38.585Z,14.57
2022-12-28T11:23:40.627Z,10.73
2022-12-28T11:24:43.568Z,12.40
2022-12-28T11:25:45.574Z,10.57
2022-12-28T11:26:50.446Z,10.80
2022-12-28T11:27:52.475Z,13.77
2022-12-28T11:28:56.207Z,18.17
2022-12-28T11:29:58.513Z,14.32
2022-12-28T11:31:04.243Z,19.45
2022-12-28T11:32:11.929Z,19.92
2022-12-28T11:33:26.359Z,17.55
2022-12-28T11:34:30.487Z,18.73
2022-12-28T11:35:34.909Z,15.05
2022-12-28T11:36:43.352Z,14.15
2022-12-28T11:37:54.442Z,17.95
2022-12-28T11:38:57.348Z,13.15
2022-12-28T11:39:59.202Z,13.15
2022-12-28T11:41:01.983Z,13.20
2022-12-28T11:42:38.443Z,15.18
2022-12-28T11:43:40.187Z,11.90
2022-12-28T11:44:51.380Z,13.18
2022-12-28T11:45:54.470Z,26.60
2022-12-28T11:47:01.839Z,11.73
2022-12-28T11:48:37.373Z,13.57
2022-12-28T11:49:40.700Z,9.57
2022-12-28T11:50:53.267Z,10.38
2022-12-28T11:52:34.065Z,18.35
2022-12-28T11:53:53.793Z,11.82
2022-12-28T11:54:57.620Z,6.60
2022-12-28T11:56:05.416Z,10.05
2022-12-28T11:57:11.171Z,8.13
2022-12-28T11:58:49.689Z,7.90
2022-12-28T11:59:52.866Z,10.80
2022-12-28T12:00:54.885Z,10.13
2022-12-28T12:01:59.006Z,12.27
2022-12-28T12:03:01.874Z,10.98
2022-12-28T12:04:11.736Z,12.30
2022-12-28T12:05:56.441Z,7.95
2022-12-28T12:07:15.746Z,14.48
2022-12-28T12:08:40.943Z,8.85
2022-12-28T12:09:46.590Z,10.25
2022-12-28T12:10:50.166Z,14.40
2022-12-28T12:11:53.178Z,19.92
2022-12-28T12:12:56.713Z,8.32
2022-12-28T12:14:00.709Z,12.07
2022-12-28T12:15:09.170Z,8.30
2022-12-28T12:16:24.329Z,16.25
2022-12-28T12:17:36.815Z,12.73
2022-12-28T12:18:46.393Z,7.65
2022-12-28T12:19:50.640Z,7.95
2022-12-28T12:20:55.849Z,8.63
2022-12-28T12:22:02.708Z,10.25
2022-12-28T12:23:07.760Z,28.92
2022-12-28T12:27:36.589Z,8.23
2022-12-28T12:28:41.251Z,9.43
2022-12-28T12:29:46.524Z,16.45
2022-12-28T12:30:49.034Z,15.48
2022-12-28T12:31:57.527Z,15.25
2022-12-28T12:33:03.871Z,13.88
2022-12-28T12:34:13.310Z,12.15
2022-12-28T12:35:23.265Z,8.32
2022-12-28T12:36:47.937Z,8.23
2022-12-28T12:37:55.015Z,7.28
2022-12-28T12:39:12.610Z,8.65
2022-12-28T12:40:29.564Z,7.15
2022-12-28T12:41:38.604Z,9.23
2022-12-28T12:42:56.975Z,17.98
2022-12-28T12:44:10.908Z,8.68
2022-12-28T12:45:23.336Z,7.13
2022-12-28T12:46:41.806Z,7.97
2022-12-28T12:48:17.562Z,6.00
2022-12-28T12:49:34.983Z,6.15
2022-12-28T12:50:55.107Z,6.90
2022-12-28T12:52:03.208Z,7.15
2022-12-28T12:53:10.891Z,11.43
2022-12-28T12:54:27.339Z,8.50
2022-12-28T12:55:48.497Z,9.23
2022-12-28T12:56:55.192Z,6.97
2022-12-28T12:58:03.074Z,10.82
2022-12-28T12:59:20.490Z,4.63
2022-12-28T13:00:24.134Z,8.35
2022-12-28T13:01:32.884Z,18.45
2022-12-28T13:02:52.059Z,5.65
2022-12-28T13:03:56.600Z,7.03
2022-12-28T13:05:02.296Z,9.45
2022-12-28T13:06:06.287Z,5.55
2022-12-28T13:07:17.087Z,4.80
2022-12-28T13:08:24.178Z,11.85
2022-12-28T13:09:28.424Z,3.97
2022-12-28T13:10:35.145Z,8.13
2022-12-28T13:11:38.754Z,16.85
2022-12-28T13:12:40.995Z,35.08
2022-12-28T13:13:48.258Z,7.85
2022-12-28T13:14:54.092Z,9.15
2022-12-28T13:15:59.896Z,8.13
2022-12-28T13:17:02.723Z,8.35
2022-12-28T13:19:32.784Z,6.15
2022-12-28T13:20:34.616Z,8.10
2022-12-28T13:21:42.107Z,10.32
2022-12-28T13:22:45.852Z,3.92
2022-12-28T13:23:50.193Z,4.85
2022-12-28T13:24:52.022Z,3.60
2022-12-28T13:25:56.360Z,5.43
2022-12-28T13:27:00.603Z,5.90
2022-12-28T13:28:03.621Z,7.03
2022-12-28T13:29:10.974Z,8.38
2022-12-28T13:30:18.389Z,6.72
2022-12-28T13:31:22.888Z,3.30
2022-12-28T13:32:27.804Z,12.23
2022-12-28T13:33:33.401Z,8.55
2022-12-28T13:34:37.587Z,7.80
2022-12-28T13:35:39.658Z,5.85
2022-12-28T13:36:48.953Z,7.30
2022-12-28T13:38:02.798Z,17.90
2022-12-28T13:39:12.655Z,7.18
2022-12-28T13:40:17.578Z,4.07
2022-12-28T13:41:22.930Z,5.22
2022-12-28T13:42:29.257Z,6.10
2022-12-28T13:44:09.535Z,6.40
2022-12-28T13:45:15.628Z,4.20
2022-12-28T13:46:19.347Z,4.13
2022-12-28T13:47:25.496Z,4.40
2022-12-28T13:48:27.822Z,7.22
2022-12-28T13:49:33.400Z,9.43
2022-12-28T13:50:37.807Z,4.75
2022-12-28T13:51:41.581Z,4.10
2022-12-28T13:52:46.805Z,6.10
2022-12-28T13:53:50.828Z,5.43
2022-12-28T13:54:57.564Z,6.28
2022-12-28T13:56:00.973Z,4.15
2022-12-28T13:57:44.176Z,3.88
2022-12-28T13:58:30.024Z,4.70
2022-12-28T13:59:35.607Z,7.05
2022-12-28T14:00:40.252Z,10.07
2022-12-28T14:01:44.861Z,8.27
2022-12-28T14:02:48.487Z,4.65
2022-12-28T14:03:51.817Z,5.00
2022-12-28T14:04:55.350Z,6.78
2022-12-28T14:06:00.041Z,7.97
2022-12-28T14:07:02.867Z,6.75
2022-12-28T14:08:06.072Z,8.35
2022-12-28T14:09:11.804Z,6.47
2022-12-28T14:10:14.607Z,7.30
2022-12-28T14:11:17.979Z,8.27
2022-12-28T14:12:20.193Z,8.77
2022-12-28T14:13:23.280Z,6.50
2022-12-28T14:14:25.223Z,7.03
2022-12-28T14:15:28.785Z,5.03
2022-12-28T14:16:32.147Z,4.30
2022-12-28T14:17:36.199Z,8.35
2022-12-28T14:18:38.680Z,8.27
2022-12-28T14:19:42.315Z,17.23
2022-12-28T14:20:49.182Z,7.13
2022-12-28T14:21:52.044Z,9.07
2022-12-28T14:22:54.876Z,7.57
2022-12-28T14:24:02.817Z,8.88
2022-12-28T14:25:09.001Z,9.80